createdAt,value
2017-11-21T00:00:49.409Z,32.43
2017-11-21T00:03:51.323Z,30.60
2017-11-21T00:06:54.115Z,32.90
2017-11-21T00:09:56.062Z,32.27
2017-11-21T00:12:57.960Z,33.30
2017-11-21T00:15:59.955Z,32.27
2017-11-21T00:19:01.943Z,33.90
2017-11-21T00:22:03.951Z,33.87
2017-11-21T00:25:06.607Z,29.13
2017-11-21T00:28:08.585Z,34.57
2017-11-21T00:31:10.582Z,32.43
2017-11-21T00:34:12.559Z,33.13
2017-11-21T00:37:14.529Z,31.37
2017-11-21T00:40:16.617Z,33.40
2017-11-21T00:43:18.507Z,35.23
2017-11-21T00:46:20.482Z,33.33
2017-11-21T00:49:22.484Z,28.57
2017-11-21T00:52:24.955Z,29.03
2017-11-21T00:55:26.854Z,32.50
2017-11-21T00:58:28.818Z,32.83
2017-11-21T01:01:30.716Z,29.57
2017-11-21T01:04:32.890Z,30.80
2017-11-21T01:07:34.822Z,33.23
2017-11-21T01:10:36.772Z,28.23
2017-11-21T01:13:38.754Z,27.43
2017-11-21T01:16:40.722Z,28.93
2017-11-21T01:19:42.643Z,28.23
2017-11-21T01:22:45.440Z,24.77
2017-11-21T01:25:47.401Z,27.27
2017-11-21T01:28:49.380Z,26.43
2017-11-21T01:31:51.351Z,27.53
2017-11-21T01:34:53.355Z,26.87
2017-11-21T01:37:55.258Z,27.43
2017-11-21T01:40:57.328Z,29.33
2017-11-21T01:44:00.074Z,25.93
2017-11-21T01:47:02.506Z,23.70
2017-11-21T01:50:04.479Z,24.03
2017-11-21T01:53:06.423Z,22.93
2017-11-21T01:56:08.347Z,22.53
2017-11-21T01:59:10.324Z,19.53
2017-11-21T02:02:12.309Z,19.20
2017-11-21T02:05:14.271Z,19.17
2017-11-21T02:08:16.191Z,14.67
2017-11-21T02:11:19.727Z,18.30
2017-11-21T02:14:22.402Z,17.00
2017-11-21T02:17:25.201Z,14.93
2017-11-21T02:20:27.110Z,19.47
2017-11-21T02:23:29.815Z,13.57
2017-11-21T02:26:32.480Z,12.97
2017-11-21T02:29:34.419Z,12.70
2017-11-21T02:32:36.340Z,15.33
2017-11-21T02:35:38.264Z,11.07
2017-11-21T02:38:40.954Z,12.73
2017-11-21T02:41:43.658Z,11.27
2017-11-21T02:44:46.439Z,10.53
2017-11-21T02:47:49.867Z,10.70
2017-11-21T02:50:51.858Z,9.03
2017-11-21T02:53:54.850Z,12.30
2017-11-21T02:56:56.814Z,9.67
2017-11-21T02:59:58.732Z,10.10
2017-11-21T03:03:01.470Z,9.30
2017-11-21T03:06:03.404Z,9.60
2017-11-21T03:09:06.098Z,10.17
2017-11-21T03:12:08.878Z,10.13
2017-11-21T03:15:10.813Z,11.63
2017-11-21T03:18:12.866Z,9.20
2017-11-21T03:21:26.591Z,11.07
2017-11-21T03:24:40.287Z,10.90
2017-11-21T03:27:54.204Z,11.20
2017-11-21T03:30:56.144Z,9.93
2017-11-21T03:33:58.935Z,13.37
2017-11-21T03:37:01.421Z,12.10
2017-11-21T03:40:03.348Z,18.77
2017-11-21T03:43:05.393Z,14.47
2017-11-21T03:46:07.375Z,11.73
2017-11-21T03:49:09.330Z,11.90
2017-11-21T03:52:11.234Z,10.13
2017-11-21T03:55:13.185Z,10.87
2017-11-21T03:58:15.086Z,13.07
2017-11-21T04:01:17.063Z,11.70
2017-11-21T04:04:18.978Z,11.53
2017-11-21T04:07:21.653Z,12.30
2017-11-21T04:10:23.619Z,10.17
2017-11-21T04:13:26.420Z,11.00
2017-11-21T04:16:28.415Z,18.50
2017-11-21T04:19:30.326Z,11.20
2017-11-21T04:22:32.987Z,13.43
2017-11-21T04:25:34.970Z,12.03
2017-11-21T04:28:36.862Z,17.47
2017-11-21T04:31:39.632Z,16.30
2017-11-21T04:34:41.572Z,21.30
2017-11-21T04:37:44.288Z,20.50
2017-11-21T04:40:46.187Z,19.77
2017-11-21T04:43:48.245Z,20.67
2017-11-21T04:46:51.924Z,26.73
2017-11-21T04:49:53.851Z,24.63
2017-11-21T04:52:56.853Z,34.50
2017-11-21T04:55:59.574Z,23.80
2017-11-21T04:59:01.503Z,26.93
2017-11-21T05:02:03.507Z,27.53
2017-11-21T05:05:06.082Z,36.47
2017-11-21T05:08:07.995Z,26.30
2017-11-21T05:11:10.683Z,24.30
2017-11-21T05:14:12.622Z,31.63
2017-11-21T05:17:14.535Z,26.77
2017-11-21T05:20:16.453Z,30.07
2017-11-21T05:23:19.139Z,24.00
2017-11-21T05:26:21.948Z,37.47
2017-11-21T05:29:24.711Z,42.67
2017-11-21T05:32:38.690Z,36.37
2017-11-21T05:35:41.385Z,35.17
2017-11-21T05:38:44.130Z,44.87
2017-11-21T05:41:46.038Z,29.73
2017-11-21T05:44:48.035Z,29.83
2017-11-21T05:47:50.047Z,25.33
2017-11-21T05:50:52.127Z,29.73
2017-11-21T05:53:54.122Z,34.27
2017-11-21T05:56:56.073Z,32.70
2017-11-21T05:59:58.790Z,23.47
2017-11-21T06:03:00.763Z,28.27
2017-11-21T06:06:02.764Z,26.27
2017-11-21T06:09:05.376Z,27.73
2017-11-21T06:12:08.137Z,27.80
2017-11-21T06:15:10.142Z,32.63
2017-11-21T06:18:13.648Z,30.40
2017-11-21T06:21:15.602Z,35.60
2017-11-21T06:24:17.647Z,26.73
2017-11-21T06:27:20.353Z,28.57
2017-11-21T06:30:23.127Z,29.67
2017-11-21T06:33:25.085Z,30.40
2017-11-21T06:36:27.075Z,28.93
2017-11-21T06:39:29.061Z,26.87
2017-11-21T06:42:31.250Z,27.97
2017-11-21T06:45:33.208Z,28.27
2017-11-21T06:48:35.232Z,30.57
2017-11-21T06:51:37.232Z,29.83
2017-11-21T06:54:39.987Z,30.07
2017-11-21T06:57:42.011Z,30.93
2017-11-21T07:00:44.801Z,28.90
2017-11-21T07:03:46.763Z,29.73
2017-11-21T07:06:48.750Z,29.00
2017-11-21T07:09:50.758Z,30.03
2017-11-21T07:12:53.449Z,28.53
2017-11-21T07:15:55.416Z,27.93
2017-11-21T07:18:57.320Z,28.00
2017-11-21T07:21:59.245Z,26.60
2017-11-21T07:25:01.262Z,25.90
2017-11-21T07:28:03.238Z,25.23
2017-11-21T07:31:05.258Z,26.33
2017-11-21T07:34:08.065Z,26.13
2017-11-21T07:37:10.868Z,28.87
2017-11-21T07:40:14.261Z,27.53
2017-11-21T07:43:16.476Z,32.17
2017-11-21T07:46:19.246Z,31.90
2017-11-21T07:49:21.249Z,36.47
2017-11-21T07:52:23.235Z,31.43
2017-11-21T07:55:26.032Z,31.00
2017-11-21T07:58:28.677Z,34.90
2017-11-21T08:01:30.597Z,26.70
2017-11-21T08:04:32.568Z,26.70
2017-11-21T08:07:34.497Z,28.53
2017-11-21T08:10:37.194Z,25.60
2017-11-21T08:13:39.890Z,22.93
2017-11-21T08:16:42.589Z,24.67
2017-11-21T08:19:45.542Z,20.50
2017-11-21T08:22:47.462Z,21.47
2017-11-21T08:25:49.386Z,25.10
2017-11-21T08:28:51.337Z,22.87
2017-11-21T08:31:54.782Z,25.43
2017-11-21T08:34:56.758Z,28.40
2017-11-21T08:37:59.458Z,24.60
2017-11-21T08:41:01.503Z,24.37
2017-11-21T08:44:03.426Z,20.33
2017-11-21T08:47:05.358Z,23.60
2017-11-21T08:50:07.360Z,25.00
2017-11-21T08:53:09.298Z,22.10
2017-11-21T08:56:11.222Z,20.10
2017-11-21T08:59:13.184Z,17.70
2017-11-21T09:02:15.173Z,18.90
2017-11-21T09:05:17.094Z,20.13
2017-11-21T09:08:19.781Z,18.23
2017-11-21T09:11:21.703Z,23.33
2017-11-21T09:14:23.627Z,25.03
2017-11-21T09:17:25.630Z,23.77
2017-11-21T09:20:27.585Z,24.93
2017-11-21T09:23:29.573Z,24.17
2017-11-21T09:26:31.476Z,19.17
2017-11-21T09:29:33.465Z,22.17
2017-11-21T09:32:35.426Z,19.77
2017-11-21T09:35:37.369Z,24.13
2017-11-21T09:38:39.337Z,17.67
2017-11-21T09:41:41.281Z,21.17
2017-11-21T09:44:43.280Z,19.17
2017-11-21T09:47:45.989Z,19.53
2017-11-21T09:50:48.796Z,20.23
2017-11-21T09:53:51.555Z,21.13
2017-11-21T09:56:53.581Z,16.73
2017-11-21T09:59:56.303Z,19.63
2017-11-21T10:02:58.243Z,18.23
2017-11-21T10:06:00.544Z,18.57
2017-11-21T10:09:03.247Z,21.03
2017-11-21T10:12:05.947Z,17.57
2017-11-21T10:15:08.704Z,20.73
2017-11-21T10:18:10.620Z,18.80
2017-11-21T10:21:12.605Z,20.50
2017-11-21T10:24:15.303Z,16.87
2017-11-21T10:27:17.197Z,16.37
2017-11-21T10:30:20.095Z,15.23
2017-11-21T10:33:23.621Z,16.17
2017-11-21T10:36:26.335Z,16.40
2017-11-21T10:39:28.236Z,18.13
2017-11-21T10:42:30.284Z,15.00
2017-11-21T10:45:32.946Z,14.83
2017-11-21T10:48:34.884Z,10.93
2017-11-21T10:51:36.775Z,15.37
2017-11-21T10:54:38.935Z,9.53
2017-11-21T10:57:41.620Z,11.00
2017-11-21T11:00:43.575Z,11.87
2017-11-21T11:03:45.507Z,12.47
2017-11-21T11:06:47.434Z,12.17
2017-11-21T11:09:49.399Z,14.30
2017-11-21T11:12:51.319Z,15.43
2017-11-21T11:15:53.303Z,15.50
2017-11-21T11:18:55.251Z,18.97
2017-11-21T11:21:57.185Z,15.93
2017-11-21T11:24:59.875Z,13.50
2017-11-21T11:28:03.333Z,18.67
2017-11-21T11:31:05.320Z,16.57
2017-11-21T11:34:07.255Z,16.93
2017-11-21T11:37:09.222Z,20.93
2017-11-21T11:40:11.138Z,17.83
2017-11-21T11:43:13.842Z,20.47
2017-11-21T11:46:16.536Z,20.57
2017-11-21T11:49:19.251Z,19.30
2017-11-21T11:52:21.184Z,20.80
2017-11-21T11:55:23.106Z,24.80
2017-11-21T11:58:25.927Z,27.90
2017-11-21T12:01:27.861Z,28.40
2017-11-21T12:04:29.769Z,26.97
2017-11-21T12:07:32.506Z,27.67
2017-11-21T12:10:34.435Z,31.13
2017-11-21T12:13:36.381Z,31.20
2017-11-21T12:16:38.278Z,30.83
2017-11-21T12:19:40.233Z,36.83
2017-11-21T12:22:42.127Z,33.70
2017-11-21T12:25:44.044Z,30.30
2017-11-21T12:28:47.277Z,31.47
2017-11-21T12:31:49.964Z,30.17
2017-11-21T12:34:51.904Z,34.33
2017-11-21T12:37:53.860Z,33.13
2017-11-21T12:40:55.746Z,35.23
2017-11-21T12:43:57.755Z,33.47
2017-11-21T12:46:59.700Z,31.90
2017-11-21T12:50:01.637Z,35.77
2017-11-21T12:53:03.552Z,38.50
2017-11-21T12:56:06.302Z,40.17
2017-11-21T12:59:08.209Z,40.77
2017-11-21T13:02:10.302Z,37.77
2017-11-21T13:05:12.233Z,38.40
2017-11-21T13:08:14.178Z,41.03
2017-11-21T13:11:16.987Z,42.47
2017-11-21T13:14:19.745Z,40.13
2017-11-21T13:17:21.655Z,43.93
2017-11-21T13:20:23.583Z,44.43
2017-11-21T13:23:25.478Z,45.63
2017-11-21T13:26:27.649Z,40.60
2017-11-21T13:29:29.576Z,48.57
2017-11-21T13:32:31.538Z,43.03
2017-11-21T13:35:33.467Z,44.47
2017-11-21T13:38:35.434Z,48.43
2017-11-21T13:41:37.373Z,51.70
2017-11-21T13:44:39.348Z,49.27
2017-11-21T13:47:41.248Z,63.97
2017-11-21T13:50:43.220Z,49.80
2017-11-21T13:53:45.119Z,50.10
2017-11-21T13:56:47.078Z,59.33
2017-11-21T13:59:48.970Z,49.27
2017-11-21T14:02:50.947Z,51.83
2017-11-21T14:05:52.858Z,51.83
2017-11-21T14:08:54.783Z,51.40
2017-11-21T14:11:56.714Z,49.27
2017-11-21T14:14:58.642Z,48.33
2017-11-21T14:18:00.552Z,44.37
2017-11-21T14:21:02.505Z,46.87
2017-11-21T14:24:04.574Z,48.70
2017-11-21T14:27:07.294Z,49.57
2017-11-21T14:30:09.244Z,43.67
2017-11-21T14:33:11.209Z,43.40
2017-11-21T14:36:13.117Z,43.43
2017-11-21T14:39:15.813Z,43.90
2017-11-21T14:42:18.510Z,45.63
2017-11-21T14:45:20.706Z,46.67
2017-11-21T14:48:23.373Z,52.87
2017-11-21T14:51:25.325Z,54.00
2017-11-21T14:54:27.256Z,44.67
2017-11-21T14:57:29.970Z,50.57
2017-11-21T15:00:32.884Z,45.43
2017-11-21T15:03:35.591Z,45.83
2017-11-21T15:06:38.880Z,50.20
2017-11-21T15:09:40.814Z,53.80
2017-11-21T15:12:42.732Z,48.77
2017-11-21T15:15:44.722Z,49.50
2017-11-21T15:18:46.660Z,47.37
2017-11-21T15:21:48.595Z,43.13
2017-11-21T15:24:50.544Z,43.53
2017-11-21T15:27:52.524Z,49.53
2017-11-21T15:30:54.452Z,47.00
2017-11-21T15:33:57.255Z,50.23
2017-11-21T15:37:00.050Z,49.23
2017-11-21T15:40:02.773Z,51.87
2017-11-21T15:43:04.707Z,56.07
2017-11-21T15:46:06.651Z,55.97
2017-11-21T15:49:08.566Z,57.17
2017-11-21T15:52:10.498Z,48.20
2017-11-21T15:55:12.420Z,48.60
2017-11-21T15:58:14.390Z,57.77
2017-11-21T16:01:16.314Z,118.97
2017-11-21T16:04:18.246Z,89.70
2017-11-21T16:07:20.186Z,64.63
2017-11-21T16:10:22.898Z,71.03
2017-11-21T16:13:25.587Z,80.77
2017-11-21T16:16:28.313Z,84.43
2017-11-21T16:19:30.244Z,80.43
2017-11-21T16:22:32.179Z,77.90
2017-11-21T16:25:34.132Z,78.33
2017-11-21T16:28:36.842Z,68.30
2017-11-21T16:31:39.558Z,59.07
2017-11-21T16:34:41.581Z,59.03
2017-11-21T16:37:43.504Z,65.87
2017-11-21T16:40:46.303Z,63.67
2017-11-21T16:43:48.252Z,45.73
2017-11-21T16:46:50.980Z,45.00
2017-11-21T16:49:52.900Z,51.10
2017-11-21T16:52:54.947Z,49.63
2017-11-21T16:55:57.727Z,51.13
2017-11-21T16:58:59.747Z,47.50
2017-11-21T17:02:02.423Z,48.97
2017-11-21T17:05:04.360Z,49.60
2017-11-21T17:08:06.367Z,57.43
2017-11-21T17:11:08.318Z,65.60
2017-11-21T17:14:10.248Z,64.77
2017-11-21T17:17:12.183Z,71.30
2017-11-21T17:20:14.132Z,57.63
2017-11-21T17:23:16.861Z,56.80
2017-11-21T17:26:18.761Z,59.67
2017-11-21T17:29:20.708Z,62.33
2017-11-21T17:32:23.404Z,72.27
2017-11-21T17:35:26.197Z,65.17
2017-11-21T17:38:29.006Z,42.40
2017-11-21T17:41:31.740Z,43.80
2017-11-21T17:44:33.666Z,41.33
2017-11-21T17:47:35.659Z,34.60
2017-11-21T17:50:38.326Z,35.23
2017-11-21T17:53:40.260Z,36.87
2017-11-21T17:56:43.064Z,30.27
2017-11-21T17:59:45.337Z,29.90
2017-11-21T18:02:48.015Z,26.23
2017-11-21T18:05:50.024Z,33.53
2017-11-21T18:08:53.327Z,26.07
2017-11-21T18:11:55.253Z,27.53
2017-11-21T18:14:57.172Z,29.97
2017-11-21T18:17:59.303Z,30.30
2017-11-21T18:21:01.340Z,27.37
2017-11-21T18:24:03.268Z,28.50
2017-11-21T18:27:06.073Z,32.03
2017-11-21T18:30:08.011Z,31.30
2017-11-21T18:33:10.008Z,31.63
2017-11-21T18:36:11.955Z,35.60
2017-11-21T18:39:13.959Z,30.40
2017-11-21T18:42:15.934Z,34.73
2017-11-21T18:45:17.854Z,32.67
2017-11-21T18:48:20.602Z,34.70
2017-11-21T18:51:22.525Z,37.10
2017-11-21T18:54:24.514Z,35.97
2017-11-21T18:57:27.224Z,36.43
2017-11-21T19:00:30.004Z,41.23
2017-11-21T19:03:32.014Z,39.40
2017-11-21T19:06:34.749Z,38.07
2017-11-21T19:09:36.675Z,43.07
2017-11-21T19:12:38.652Z,42.57
2017-11-21T19:15:40.573Z,37.30
2017-11-21T19:18:43.263Z,43.10
2017-11-21T19:21:46.036Z,40.27
2017-11-21T19:24:48.003Z,48.27
2017-11-21T19:27:49.954Z,39.27
2017-11-21T19:30:51.995Z,39.80
2017-11-21T19:33:53.922Z,38.80
2017-11-21T19:36:55.977Z,39.63
2017-11-21T19:39:58.000Z,41.93
2017-11-21T19:43:00.043Z,40.60
2017-11-21T19:46:02.027Z,36.63
2017-11-21T19:49:03.989Z,40.77
2017-11-21T19:52:05.921Z,40.63
2017-11-21T19:55:08.634Z,35.60
2017-11-21T19:58:10.619Z,35.00
2017-11-21T20:01:12.566Z,31.50
2017-11-21T20:04:14.553Z,36.10
2017-11-21T20:07:17.119Z,41.70
2017-11-21T20:10:19.042Z,33.40
2017-11-21T20:13:20.985Z,35.53
2017-11-21T20:16:22.926Z,35.90
2017-11-21T20:19:24.914Z,41.03
2017-11-21T20:22:27.587Z,41.40
2017-11-21T20:25:29.545Z,39.70
2017-11-21T20:28:31.471Z,35.30
2017-11-21T20:31:33.399Z,37.33
2017-11-21T20:34:35.429Z,39.47
2017-11-21T20:37:37.509Z,36.97
2017-11-21T20:40:39.411Z,33.10
2017-11-21T20:43:41.514Z,39.87
2017-11-21T20:46:44.195Z,34.97
2017-11-21T20:49:46.153Z,37.63
2017-11-21T20:52:48.181Z,42.67
2017-11-21T20:55:50.975Z,40.93
2017-11-21T20:58:52.888Z,38.03
2017-11-21T21:01:54.880Z,37.83
2017-11-21T21:04:56.835Z,32.30
2017-11-21T21:07:59.592Z,39.43
2017-11-21T21:11:01.559Z,35.57
2017-11-21T21:14:03.517Z,40.27
2017-11-21T21:17:06.182Z,41.57
2017-11-21T21:20:08.211Z,44.17
2017-11-21T21:23:10.189Z,41.60
2017-11-21T21:26:12.159Z,49.03
2017-11-21T21:29:14.931Z,49.50
2017-11-21T21:32:16.930Z,63.43
2017-11-21T21:35:19.037Z,54.13
2017-11-21T21:38:21.294Z,72.33
2017-11-21T21:41:23.270Z,67.23
2017-11-21T21:44:25.458Z,71.53
2017-11-21T21:47:27.605Z,64.40
2017-11-21T21:50:29.640Z,61.93
2017-11-21T21:53:31.559Z,61.80
2017-11-21T21:56:33.489Z,59.23
2017-11-21T21:59:35.510Z,55.00
2017-11-21T22:02:38.226Z,53.60
2017-11-21T22:05:40.977Z,56.40
2017-11-21T22:08:43.099Z,64.17
2017-11-21T22:11:45.998Z,60.57
2017-11-21T22:14:47.951Z,61.13
2017-11-21T22:17:49.882Z,61.47
2017-11-21T22:20:52.775Z,59.10
2017-11-21T22:23:54.830Z,67.60
2017-11-21T22:26:56.824Z,70.67
2017-11-21T22:29:59.046Z,69.67
2017-11-21T22:33:01.857Z,69.90
2017-11-21T22:36:03.821Z,75.83
2017-11-21T22:39:06.607Z,78.57
2017-11-21T22:42:08.574Z,83.60
2017-11-21T22:45:10.595Z,80.40
2017-11-21T22:48:12.513Z,81.87
2017-11-21T22:51:14.482Z,79.17
2017-11-21T22:54:16.416Z,84.27
2017-11-21T22:57:18.433Z,75.70
2017-11-21T23:00:20.361Z,85.13
2017-11-21T23:03:22.280Z,77.27
2017-11-21T23:06:24.290Z,73.07
2017-11-21T23:09:27.797Z,80.77
2017-11-21T23:12:29.771Z,69.40
2017-11-21T23:15:31.699Z,69.17
2017-11-21T23:18:34.480Z,70.33
2017-11-21T23:21:36.462Z,66.03
2017-11-21T23:24:38.469Z,66.67
2017-11-21T23:27:41.238Z,76.60
2017-11-21T23:30:43.150Z,56.27
2017-11-21T23:33:45.110Z,59.43
2017-11-21T23:36:47.023Z,57.87
2017-11-21T23:39:49.564Z,59.63
2017-11-21T23:42:51.475Z,55.00
2017-11-21T23:45:53.416Z,55.03
2017-11-21T23:48:56.093Z,58.97
2017-11-21T23:51:58.042Z,52.93
2017-11-21T23:55:00.067Z,52.20
2017-11-21T23:58:02.061Z,56.60
